Time;durP1;ratioP1;P1;durP2;ratioP2;P2;SDS_P1;SDS_P2;PMS_P1;PMS_P2;Temp;Humidity;BMP_temperature;BMP_pressure;BME280_temperature;BME280_humidity;BME280_pressure;Samples;Min_cycle;Max_cycle;Signal;HPM_P1;HPM_P2
2022/11/05 00:10:10;;;;;;;0.30;0.30;;;10.20;99.90;;;;;;5071799;28;20040;-43
2022/11/05 00:18:04;;;;;;;0.30;0.30;;;10.20;99.90;;;;;;5071629;28;20042;-44
2022/11/05 00:20:30;;;;;;;0.73;0.73;;;10.30;99.90;;;;;;5071344;28;20025;-47
2022/11/05 00:26:01;;;;;;;0.63;0.63;;;10.40;99.90;;;;;;5071706;28;20054;-45
2022/11/05 00:28:28;;;;;;;0.40;0.40;;;10.40;99.90;;;;;;5071028;28;20025;-42
2022/11/05 00:31:00;;;;;;;0.32;0.32;;;10.30;99.90;;;;;;5071058;28;20055;-47
2022/11/05 00:33:26;;;;;;;1.33;1.27;;;10.40;99.90;;;;;;5071493;28;20025;-44
2022/11/05 00:35:51;;;;;;;1.02;0.95;;;10.40;99.90;;;;;;5071123;28;20090;-45
2022/11/05 00:38:17;;;;;;;0.30;0.30;;;10.40;99.90;;;;;;5071170;28;20025;-44
2022/11/05 00:40:44;;;;;;;0.20;0.20;;;10.20;99.90;;;;;;5071241;28;20027;-46
2022/11/05 00:46:02;;;;;;;0.30;0.30;;;9.90;99.90;;;;;;5047348;28;20495;-45
2022/11/05 00:51:11;;;;;;;0.20;0.20;;;9.80;99.90;;;;;;5071112;28;20082;-47
2022/11/05 00:53:37;;;;;;;0.55;0.55;;;9.70;99.90;;;;;;5074683;28;20096;-43
2022/11/05 00:56:03;;;;;;;0.20;0.20;;;9.70;99.90;;;;;;5074998;28;20103;-43
2022/11/05 00:58:29;;;;;;;1.25;1.25;;;9.60;99.90;;;;;;5075042;28;20027;-46
2022/11/05 01:00:57;;;;;;;0.30;0.30;;;9.50;99.90;;;;;;5074925;28;20095;-47
2022/11/05 01:03:31;;;;;;;0.20;0.20;;;9.40;99.90;;;;;;5074935;28;20032;-48
2022/11/05 01:06:07;;;;;;;0.40;0.40;;;9.40;99.90;;;;;;5074866;28;20020;-47
2022/11/05 01:08:32;;;;;;;0.60;0.60;;;9.40;99.90;;;;;;5074859;28;20461;-43
2022/11/05 01:10:58;;;;;;;0.30;0.30;;;9.40;99.90;;;;;;5074812;28;20047;-45
2022/11/05 01:13:29;;;;;;;0.30;0.30;;;9.40;99.90;;;;;;5074847;28;20021;-43
2022/11/05 01:15:55;;;;;;;0.30;0.30;;;9.40;99.90;;;;;;5074951;28;20081;-47
2022/11/05 01:18:23;;;;;;;0.20;0.20;;;9.30;99.90;;;;;;5074852;28;20021;-44
2022/11/05 01:20:49;;;;;;;0.25;0.25;;;9.30;99.90;;;;;;5074889;28;20032;-48
2022/11/05 01:23:15;;;;;;;0.40;0.40;;;9.40;99.90;;;;;;5074732;28;20094;-46
2022/11/05 01:25:42;;;;;;;0.47;0.47;;;9.30;99.90;;;;;;5074487;28;20107;-43
2022/11/05 01:28:08;;;;;;;0.30;0.30;;;9.30;99.90;;;;;;5074512;28;20078;-44
2022/11/05 01:30:34;;;;;;;0.30;0.30;;;9.30;99.90;;;;;;5074275;28;20041;-46
2022/11/05 01:33:02;;;;;;;0.50;0.50;;;9.20;99.90;;;;;;5073226;28;20438;-43
2022/11/05 01:35:28;;;;;;;0.28;0.28;;;9.20;99.90;;;;;;5074438;28;20396;-44
2022/11/05 01:37:53;;;;;;;0.30;0.30;;;9.20;99.90;;;;;;5074279;28;20118;-44
2022/11/05 01:40:21;;;;;;;0.20;0.20;;;9.10;99.90;;;;;;5074142;28;20553;-42
2022/11/05 01:42:46;;;;;;;0.30;0.30;;;9.20;99.90;;;;;;5074175;28;20025;-44
2022/11/05 01:45:22;;;;;;;0.20;0.20;;;9.20;99.90;;;;;;5074201;28;20173;-43
2022/11/05 01:48:01;;;;;;;0.50;0.50;;;9.20;99.90;;;;;;5074241;28;20024;-46
2022/11/05 01:50:36;;;;;;;0.20;0.20;;;9.20;99.90;;;;;;5074148;28;20028;-47
2022/11/05 01:53:05;;;;;;;0.32;0.32;;;9.10;99.90;;;;;;5073992;28;20095;-44
2022/11/05 01:55:41;;;;;;;0.82;0.82;;;9.10;99.90;;;;;;5073895;28;20024;-48
2022/11/05 01:58:11;;;;;;;0.30;0.30;;;9.20;99.90;;;;;;5073999;28;20028;-46
2022/11/05 02:00:38;;;;;;;0.30;0.30;;;9.30;99.90;;;;;;5073913;28;20029;-47
2022/11/05 02:03:04;;;;;;;0.65;0.65;;;9.30;99.90;;;;;;5073313;28;20025;-43
2022/11/05 02:05:30;;;;;;;0.30;0.30;;;9.30;99.90;;;;;;5073747;28;20651;-46
2022/11/05 02:07:57;;;;;;;0.30;0.30;;;9.30;99.90;;;;;;5073864;28;20431;-45
2022/11/05 02:10:23;;;;;;;0.32;0.32;;;9.30;99.90;;;;;;5073797;28;20059;-45
2022/11/05 02:12:49;;;;;;;0.95;0.80;;;9.20;99.90;;;;;;5073575;28;20096;-46
2022/11/05 02:15:21;;;;;;;0.50;0.50;;;9.10;99.90;;;;;;5073688;28;20541;-43
2022/11/05 02:17:52;;;;;;;0.28;0.28;;;9.10;99.90;;;;;;5073656;28;20032;-44
2022/11/05 02:20:23;;;;;;;0.30;0.30;;;9.00;99.90;;;;;;5073271;28;20032;-46
2022/11/05 02:23:11;;;;;;;0.30;0.30;;;9.00;99.90;;;;;;5073462;28;20020;-48
2022/11/05 02:25:58;;;;;;;0.20;0.20;;;9.00;99.90;;;;;;5073406;28;20089;-44
2022/11/05 02:29:26;;;;;;;0.40;0.40;;;9.00;99.90;;;;;;5073206;28;20496;-48
2022/11/05 02:32:06;;;;;;;0.30;0.30;;;9.10;99.90;;;;;;5010451;28;20050;-43
2022/11/05 02:35:05;;;;;;;0.52;0.52;;;9.10;99.90;;;;;;5010866;28;20030;-45
2022/11/05 02:37:39;;;;;;;0.40;0.40;;;9.10;99.90;;;;;;5070398;28;20037;-46
2022/11/05 02:40:12;;;;;;;0.30;0.30;;;9.20;99.90;;;;;;5073085;28;20024;-46
2022/11/05 02:43:01;;;;;;;1.55;0.70;;;9.40;99.90;;;;;;5073008;28;20025;-49
2022/11/05 02:45:36;;;;;;;0.63;0.63;;;9.50;99.90;;;;;;5072910;28;20052;-43
2022/11/05 02:48:26;;;;;;;0.20;0.20;;;9.60;99.90;;;;;;5073076;28;20036;-44
2022/11/05 02:50:52;;;;;;;0.38;0.38;;;9.60;99.90;;;;;;5071501;28;20478;-47
2022/11/05 02:53:47;;;;;;;0.40;0.40;;;9.60;99.90;;;;;;5072767;28;20031;-46
2022/11/05 02:56:31;;;;;;;0.20;0.20;;;9.60;99.90;;;;;;5072603;28;20028;-45
2022/11/05 02:58:57;;;;;;;1.33;1.23;;;9.60;99.90;;;;;;5072598;28;20480;-46
2022/11/05 03:01:23;;;;;;;0.43;0.43;;;9.70;99.90;;;;;;5071675;28;20012;-47
2022/11/05 03:03:59;;;;;;;0.30;0.30;;;9.60;99.90;;;;;;5072463;28;20020;-42
2022/11/05 03:06:40;;;;;;;0.50;0.50;;;9.70;99.90;;;;;;5072574;28;20483;-44
2022/11/05 03:09:32;;;;;;;0.30;0.30;;;9.60;99.90;;;;;;5072359;28;20028;-44
2022/11/05 03:12:01;;;;;;;15.70;2.30;;;9.60;99.90;;;;;;5072408;28;20104;-46
2022/11/05 03:14:35;;;;;;;0.30;0.30;;;9.50;99.90;;;;;;5071447;28;20067;-43
2022/11/05 03:17:12;;;;;;;0.45;0.45;;;9.40;99.90;;;;;;5072377;28;20035;-44
2022/11/05 03:19:37;;;;;;;0.60;0.60;;;9.30;99.90;;;;;;5072256;28;20112;-44
2022/11/05 03:22:12;;;;;;;0.43;0.43;;;9.30;99.90;;;;;;5072209;28;20044;-45
2022/11/05 03:24:44;;;;;;;2.05;1.33;;;9.30;99.90;;;;;;5072037;28;20021;-45
2022/11/05 03:27:14;;;;;;;0.90;0.90;;;9.20;99.90;;;;;;5072385;28;20071;-46
2022/11/05 03:29:51;;;;;;;1.30;1.17;;;9.10;99.90;;;;;;5071885;28;20025;-45
2022/11/05 03:32:19;;;;;;;2.25;1.17;;;9.20;99.90;;;;;;5072049;28;20126;-46
2022/11/05 03:35:24;;;;;;;0.30;0.30;;;9.20;99.90;;;;;;5071884;28;20469;-43
2022/11/05 03:38:02;;;;;;;0.40;0.40;;;9.10;99.90;;;;;;5053096;28;20071;-46
2022/11/05 03:40:32;;;;;;;48.13;3.22;;;9.00;99.90;;;;;;5070930;28;20380;-49
2022/11/05 03:43:00;;;;;;;0.95;0.75;;;8.90;99.90;;;;;;5070621;28;20064;-47
2022/11/05 03:45:51;;;;;;;0.65;0.65;;;8.80;99.90;;;;;;5071686;28;20027;-45
2022/11/05 03:48:19;;;;;;;2.85;1.50;;;8.80;99.90;;;;;;5071883;28;20021;-45
2022/11/05 03:50:52;;;;;;;0.30;0.30;;;8.70;99.90;;;;;;5070488;28;20556;-44
2022/11/05 03:53:27;;;;;;;0.88;0.88;;;8.60;99.90;;;;;;5071704;28;20384;-46
2022/11/05 03:56:00;;;;;;;0.40;0.40;;;8.60;99.90;;;;;;5070288;28;20020;-45
2022/11/05 03:58:27;;;;;;;1.02;0.98;;;8.50;99.90;;;;;;5071686;28;20026;-47
2022/11/05 04:00:53;;;;;;;0.50;0.50;;;8.50;99.90;;;;;;5071627;28;20029;-42
2022/11/05 04:03:19;;;;;;;0.38;0.38;;;8.50;99.90;;;;;;5071598;28;20388;-46
2022/11/05 04:13:22;;;;;;;0.40;0.40;;;8.50;99.90;;;;;;5071436;28;20039;-44
2022/11/05 04:13:59;;;;;;;0.85;0.85;;;8.50;99.90;;;;;;5071621;28;20440;-42
2022/11/05 04:19:09;;;;;;;0.70;0.70;;;8.40;99.90;;;;;;5071672;28;20027;-43
2022/11/05 04:24:19;;;;;;;0.30;0.30;;;8.40;99.90;;;;;;5071828;28;20133;-42
2022/11/05 04:26:46;;;;;;;0.30;0.30;;;8.40;99.90;;;;;;5071444;28;20410;-46
2022/11/05 04:31:56;;;;;;;2.08;1.38;;;8.50;99.90;;;;;;5071086;28;20408;-43
2022/11/05 04:34:22;;;;;;;0.50;0.50;;;8.50;99.90;;;;;;5071322;28;20024;-42
2022/11/05 04:36:49;;;;;;;0.32;0.32;;;8.50;99.90;;;;;;5071460;28;20024;-42
2022/11/05 04:39:16;;;;;;;0.30;0.30;;;8.50;99.90;;;;;;5071334;28;20020;-43
2022/11/05 04:41:42;;;;;;;0.30;0.30;;;8.60;99.90;;;;;;5071198;28;20021;-48
2022/11/05 04:44:07;;;;;;;0.40;0.40;;;8.60;99.90;;;;;;5070383;28;20031;-44
2022/11/05 04:46:33;;;;;;;0.30;0.30;;;8.60;99.90;;;;;;5071383;28;20674;-43
2022/11/05 04:48:59;;;;;;;0.45;0.45;;;8.30;99.90;;;;;;5071232;28;20021;-45
2022/11/05 04:51:26;;;;;;;1.10;1.02;;;8.30;99.90;;;;;;5071082;28;20041;-47
2022/11/05 04:53:52;;;;;;;0.30;0.30;;;8.30;99.90;;;;;;5071209;28;20028;-47
2022/11/05 04:56:23;;;;;;;0.60;0.60;;;8.30;99.90;;;;;;5071026;28;20031;-43
2022/11/05 04:58:49;;;;;;;0.30;0.30;;;8.30;99.90;;;;;;5071211;28;20456;-43
2022/11/05 05:01:17;;;;;;;2.10;2.00;;;8.40;99.90;;;;;;5071025;28;20099;-45
2022/11/05 05:03:45;;;;;;;0.35;0.35;;;8.50;99.90;;;;;;5070961;28;20067;-43
2022/11/05 05:06:11;;;;;;;0.20;0.20;;;8.70;99.90;;;;;;5071337;28;20025;-44
2022/11/05 05:08:36;;;;;;;0.30;0.30;;;8.90;99.90;;;;;;5071146;28;20020;-43
2022/11/05 05:11:06;;;;;;;0.40;0.40;;;9.00;99.90;;;;;;5070892;28;20060;-43
2022/11/05 05:13:32;;;;;;;0.35;0.35;;;9.10;99.90;;;;;;5070067;28;20082;-43
2022/11/05 05:15:58;;;;;;;0.77;0.77;;;9.20;99.90;;;;;;5070708;28;20028;-45
2022/11/05 05:18:25;;;;;;;0.65;0.65;;;9.20;99.90;;;;;;5070827;28;20028;-47
2022/11/05 05:23:40;;;;;;;0.45;0.45;;;9.30;99.90;;;;;;5071072;28;20480;-43
2022/11/05 05:26:06;;;;;;;0.20;0.20;;;9.40;99.90;;;;;;5069510;28;20028;-46
2022/11/05 05:28:31;;;;;;;0.35;0.35;;;9.40;99.90;;;;;;5070726;28;20020;-46
2022/11/05 05:30:59;;;;;;;0.38;0.38;;;9.40;99.90;;;;;;5070514;28;20048;-43
2022/11/05 05:33:25;;;;;;;0.30;0.30;;;9.30;99.90;;;;;;5070882;28;20063;-41
2022/11/05 05:35:50;;;;;;;0.75;0.75;;;9.20;99.90;;;;;;5069296;28;20498;-46
2022/11/05 05:38:16;;;;;;;0.30;0.30;;;9.10;99.90;;;;;;5070630;28;20033;-43
2022/11/05 05:40:42;;;;;;;3.92;2.15;;;9.00;99.90;;;;;;5074261;28;20036;-46
2022/11/05 05:43:08;;;;;;;0.30;0.30;;;8.90;99.90;;;;;;5074000;28;20017;-43
2022/11/05 05:45:36;;;;;;;0.35;0.35;;;8.90;99.90;;;;;;5074053;28;20033;-43
2022/11/05 05:48:03;;;;;;;0.30;0.30;;;9.00;99.90;;;;;;5074287;28;20020;-42
2022/11/05 05:50:28;;;;;;;0.60;0.60;;;9.00;99.90;;;;;;5072639;28;20024;-46
2022/11/05 05:52:54;;;;;;;3.08;0.70;;;9.10;99.90;;;;;;5072779;28;20024;-43
2022/11/05 05:55:20;;;;;;;1.48;1.45;;;9.10;99.90;;;;;;5073977;28;20025;-43
2022/11/05 05:57:45;;;;;;;1.50;1.40;;;9.10;99.90;;;;;;5073734;28;20040;-45
2022/11/05 06:00:12;;;;;;;0.57;0.57;;;9.20;99.90;;;;;;5073999;28;20024;-44
2022/11/05 06:02:38;;;;;;;2.40;0.88;;;9.20;99.90;;;;;;5073601;28;20461;-44
2022/11/05 06:05:04;;;;;;;0.20;0.20;;;9.40;99.90;;;;;;5073664;28;20108;-44
2022/11/05 06:07:30;;;;;;;0.45;0.45;;;9.50;99.90;;;;;;5073728;28;20059;-43
2022/11/05 06:09:55;;;;;;;1.17;0.85;;;9.60;99.90;;;;;;5073842;28;20485;-45
2022/11/05 06:12:21;;;;;;;0.85;0.85;;;9.70;99.90;;;;;;5073479;28;20083;-48
2022/11/05 06:14:47;;;;;;;8.18;1.08;;;9.80;99.90;;;;;;5073441;28;20035;-44
2022/11/05 06:17:12;;;;;;;5.72;1.80;;;9.80;99.90;;;;;;5073758;28;20036;-45
2022/11/05 06:19:38;;;;;;;1.30;1.10;;;9.90;99.90;;;;;;5073432;28;20025;-45
2022/11/05 06:22:04;;;;;;;0.63;0.63;;;9.90;99.90;;;;;;5055385;28;20069;-44
2022/11/05 06:24:29;;;;;;;0.75;0.75;;;9.80;99.90;;;;;;5071871;28;20025;-43
2022/11/05 06:26:56;;;;;;;0.55;0.55;;;9.80;99.90;;;;;;5073338;28;20626;-40
2022/11/05 06:29:22;;;;;;;0.32;0.32;;;9.70;99.90;;;;;;5073162;28;20027;-41
2022/11/05 06:31:47;;;;;;;1.27;1.20;;;9.70;99.90;;;;;;5071199;28;20060;-42
2022/11/05 06:34:15;;;;;;;1.98;1.10;;;9.60;99.90;;;;;;5072801;28;20051;-42
2022/11/05 06:36:41;;;;;;;0.57;0.57;;;9.60;99.90;;;;;;5073108;28;20566;-48
2022/11/05 06:39:11;;;;;;;0.40;0.40;;;9.60;99.90;;;;;;5072958;28;20056;-41
2022/11/05 06:41:37;;;;;;;0.60;0.60;;;9.50;99.90;;;;;;5071608;28;20066;-41
2022/11/05 06:44:03;;;;;;;0.40;0.40;;;9.50;99.90;;;;;;5072910;28;20029;-45
2022/11/05 06:46:29;;;;;;;0.28;0.28;;;9.50;99.90;;;;;;5069813;28;20107;-44
2022/11/05 06:48:55;;;;;;;0.50;0.50;;;9.50;99.90;;;;;;5072584;28;20032;-42
2022/11/05 06:51:21;;;;;;;0.20;0.20;;;9.50;99.90;;;;;;5071405;28;20032;-45
2022/11/05 06:53:46;;;;;;;0.50;0.50;;;9.50;99.90;;;;;;5072639;28;20060;-41
2022/11/05 06:56:12;;;;;;;0.22;0.22;;;9.50;99.90;;;;;;5069300;28;20024;-40
2022/11/05 06:58:38;;;;;;;0.75;0.75;;;9.50;99.90;;;;;;5072296;28;20017;-46
2022/11/05 07:01:07;;;;;;;0.40;0.40;;;9.50;99.90;;;;;;5071946;28;20068;-45
2022/11/05 07:03:34;;;;;;;0.30;0.30;;;9.50;99.90;;;;;;5070304;28;20021;-44
2022/11/05 07:06:00;;;;;;;0.38;0.38;;;9.50;99.90;;;;;;5072596;28;20024;-42
2022/11/05 07:08:31;;;;;;;0.35;0.35;;;9.60;99.90;;;;;;5071841;28;20108;-43
2022/11/05 07:10:57;;;;;;;0.85;0.65;;;9.60;99.90;;;;;;5072126;28;20023;-44
2022/11/05 07:13:22;;;;;;;0.85;0.85;;;9.70;99.90;;;;;;5071200;28;20033;-41
2022/11/05 07:15:48;;;;;;;0.40;0.40;;;9.80;99.90;;;;;;5070295;28;20116;-43
2022/11/05 07:18:14;;;;;;;0.30;0.30;;;9.80;99.90;;;;;;5070506;28;20031;-41
2022/11/05 07:20:40;;;;;;;4.68;1.17;;;9.80;99.90;;;;;;5072574;28;20033;-42
2022/11/05 07:23:10;;;;;;;0.43;0.43;;;9.90;99.90;;;;;;5052705;28;20020;-43
2022/11/05 07:25:36;;;;;;;0.45;0.45;;;9.90;99.90;;;;;;5067383;28;20032;-44
2022/11/05 07:28:03;;;;;;;0.30;0.30;;;9.90;99.90;;;;;;5050841;28;20025;-42
2022/11/05 07:30:30;;;;;;;0.90;0.88;;;9.90;99.90;;;;;;5051803;28;20537;-44
2022/11/05 07:32:55;;;;;;;0.40;0.40;;;9.90;99.90;;;;;;5052081;28;20021;-43
2022/11/05 07:35:21;;;;;;;0.70;0.70;;;10.30;99.90;;;;;;5069334;28;20122;-44
2022/11/05 07:37:49;;;;;;;3.22;1.40;;;10.50;99.90;;;;;;5071659;28;20035;-48
2022/11/05 07:40:18;;;;;;;0.50;0.50;;;10.60;99.90;;;;;;5068695;28;20025;-44
2022/11/05 07:42:52;;;;;;;0.45;0.45;;;10.90;99.90;;;;;;5050577;28;20142;-41
2022/11/05 07:45:18;;;;;;;0.20;0.20;;;10.90;99.90;;;;;;5052011;28;20121;-46
2022/11/05 07:47:46;;;;;;;18.38;1.25;;;10.90;99.90;;;;;;5050449;28;20021;-42
2022/11/05 07:50:13;;;;;;;1.20;1.10;;;10.80;99.90;;;;;;5051695;28;20603;-42
2022/11/05 07:52:39;;;;;;;0.50;0.50;;;10.80;99.90;;;;;;5051831;28;20107;-43
2022/11/05 07:55:05;;;;;;;5.68;1.63;;;10.80;99.90;;;;;;5050148;28;20112;-44
2022/11/05 07:57:31;;;;;;;2.28;2.08;;;10.80;99.90;;;;;;5053062;28;20032;-41
2022/11/05 07:59:57;;;;;;;2.75;1.80;;;10.80;99.90;;;;;;5071628;28;20021;-40
2022/11/05 08:02:23;;;;;;;8.00;0.93;;;10.90;99.90;;;;;;5053229;28;20377;-41
2022/11/05 08:04:49;;;;;;;1.48;1.02;;;10.90;99.90;;;;;;5070481;28;20488;-41
2022/11/05 08:07:14;;;;;;;0.52;0.52;;;11.00;99.90;;;;;;5070008;28;20040;-39
2022/11/05 08:09:40;;;;;;;0.30;0.30;;;11.00;99.90;;;;;;5071448;28;20027;-40
2022/11/05 08:12:06;;;;;;;0.30;0.30;;;11.00;99.90;;;;;;5069887;28;20040;-40
2022/11/05 08:14:32;;;;;;;0.40;0.40;;;11.00;99.90;;;;;;5070859;28;20035;-41
2022/11/05 08:16:57;;;;;;;1.05;1.05;;;11.10;99.90;;;;;;5071446;28;20039;-41
2022/11/05 08:19:23;;;;;;;1.98;1.10;;;11.20;99.90;;;;;;5071206;28;20123;-39
2022/11/05 08:21:49;;;;;;;0.40;0.40;;;11.30;99.90;;;;;;5070475;28;20032;-40
2022/11/05 08:24:14;;;;;;;0.60;0.60;;;11.30;99.90;;;;;;5071076;28;20491;-40
2022/11/05 08:26:40;;;;;;;0.30;0.30;;;11.40;99.90;;;;;;5071024;28;20464;-39
2022/11/05 08:29:06;;;;;;;0.30;0.30;;;11.50;99.90;;;;;;5070240;28;20457;-41
2022/11/05 08:31:32;;;;;;;14.05;0.77;;;11.70;99.90;;;;;;5070839;28;20052;-42
2022/11/05 08:33:57;;;;;;;0.30;0.30;;;11.80;99.90;;;;;;5071072;28;20473;-41
2022/11/05 08:36:23;;;;;;;0.47;0.47;;;12.20;99.90;;;;;;5070938;28;20479;-44
2022/11/05 08:38:50;;;;;;;2.58;0.50;;;12.20;99.90;;;;;;5069704;28;20031;-45
2022/11/05 08:41:15;;;;;;;0.35;0.25;;;12.20;99.90;;;;;;5070805;28;20036;-41
2022/11/05 08:43:41;;;;;;;0.20;0.20;;;12.20;99.90;;;;;;5071309;28;20029;-41
2022/11/05 08:46:07;;;;;;;0.20;0.20;;;12.20;99.90;;;;;;5070162;28;20388;-40
2022/11/05 08:48:33;;;;;;;1.80;1.08;;;12.20;99.90;;;;;;5071139;28;20020;-40
2022/11/05 08:51:00;;;;;;;0.82;0.82;;;12.30;99.90;;;;;;5071197;28;20657;-39
2022/11/05 08:53:26;;;;;;;0.20;0.20;;;12.30;99.90;;;;;;5070959;28;20021;-41
2022/11/05 08:55:56;;;;;;;0.20;0.20;;;12.30;99.90;;;;;;5071092;28;20244;-40
2022/11/05 08:58:21;;;;;;;0.20;0.20;;;12.30;99.90;;;;;;5071212;28;20032;-40
2022/11/05 09:00:49;;;;;;;0.55;0.55;;;12.30;99.90;;;;;;5071045;28;20428;-41
2022/11/05 09:03:14;;;;;;;0.30;0.30;;;12.40;99.90;;;;;;5069796;28;20017;-40
2022/11/05 09:05:41;;;;;;;2.45;0.68;;;12.40;99.90;;;;;;5070927;28;20032;-39
2022/11/05 09:08:12;;;;;;;0.50;0.50;;;12.50;99.90;;;;;;5071142;28;20017;-44
2022/11/05 09:10:39;;;;;;;10.40;1.48;;;12.50;99.90;;;;;;5070776;28;20060;-43
2022/11/05 09:13:05;;;;;;;0.25;0.25;;;12.60;99.90;;;;;;5070743;28;20025;-41
2022/11/05 09:15:32;;;;;;;0.20;0.20;;;12.60;99.90;;;;;;5075031;28;20032;-43
2022/11/05 09:17:58;;;;;;;1.88;1.75;;;12.70;99.90;;;;;;5074877;28;20021;-42
2022/11/05 09:20:24;;;;;;;0.35;0.35;;;12.70;99.90;;;;;;5074815;28;20380;-43
2022/11/05 09:22:50;;;;;;;0.65;0.40;;;12.80;99.90;;;;;;5074591;28;20617;-44
2022/11/05 09:25:16;;;;;;;0.43;0.43;;;12.80;99.90;;;;;;5074335;28;20591;-43
2022/11/05 09:27:42;;;;;;;0.50;0.50;;;12.90;99.90;;;;;;5074532;28;20048;-41
2022/11/05 09:30:10;;;;;;;0.20;0.20;;;12.90;99.90;;;;;;5072842;28;20409;-39
2022/11/05 09:32:36;;;;;;;0.28;0.28;;;12.90;99.90;;;;;;5073022;28;20561;-40
2022/11/05 09:35:01;;;;;;;0.75;0.75;;;13.00;99.90;;;;;;5074171;28;20119;-42
2022/11/05 09:37:28;;;;;;;0.20;0.20;;;13.00;99.90;;;;;;5074121;28;20468;-40
2022/11/05 09:39:54;;;;;;;0.28;0.28;;;13.00;99.90;;;;;;5074134;28;20108;-39
2022/11/05 09:42:23;;;;;;;1.17;0.77;;;13.00;99.90;;;;;;5074320;28;20044;-44
2022/11/05 09:45:12;;;;;;;1.55;1.17;;;12.90;99.90;;;;;;5074091;28;20036;-45
2022/11/05 09:48:00;;;;;;;0.28;0.28;;;13.00;99.90;;;;;;5072693;28;20024;-41
2022/11/05 09:50:41;;;;;;;0.20;0.20;;;12.90;99.90;;;;;;5073710;28;20047;-42
2022/11/05 09:53:14;;;;;;;0.20;0.20;;;12.90;99.90;;;;;;5074105;28;20477;-42
2022/11/05 09:55:44;;;;;;;0.20;0.20;;;12.90;99.90;;;;;;5073978;28;20028;-42
2022/11/05 09:58:26;;;;;;;0.20;0.20;;;12.90;99.90;;;;;;5073936;28;20428;-44
2022/11/05 10:00:52;;;;;;;0.20;0.20;;;12.90;99.90;;;;;;5073946;28;20058;-42
2022/11/05 10:03:21;;;;;;;0.20;0.20;;;12.80;99.90;;;;;;5073857;28;20070;-42
2022/11/05 10:05:49;;;;;;;0.20;0.20;;;12.70;99.90;;;;;;5072329;28;20021;-42
2022/11/05 10:08:43;;;;;;;0.20;0.20;;;12.60;99.90;;;;;;5072467;28;20124;-42
2022/11/05 10:11:22;;;;;;;0.20;0.20;;;12.50;99.90;;;;;;5071343;28;20068;-42
2022/11/05 10:13:52;;;;;;;0.20;0.20;;;12.50;99.90;;;;;;5069851;28;20463;-40
2022/11/05 10:16:24;;;;;;;0.20;0.20;;;12.40;99.90;;;;;;5072758;28;20029;-42
2022/11/05 10:19:25;;;;;;;0.20;0.20;;;12.40;99.90;;;;;;5072953;28;20024;-41
2022/11/05 10:22:12;;;;;;;0.20;0.20;;;12.50;99.90;;;;;;5073358;28;20032;-42
2022/11/05 10:24:45;;;;;;;0.20;0.20;;;12.40;99.90;;;;;;5073067;28;20044;-43
2022/11/05 10:27:32;;;;;;;0.20;0.20;;;12.30;99.90;;;;;;5073032;28;20073;-44
2022/11/05 10:29:58;;;;;;;0.20;0.20;;;12.30;99.90;;;;;;5072828;28;20129;-42
2022/11/05 10:32:36;;;;;;;0.20;0.20;;;12.30;99.90;;;;;;5072654;28;20037;-44
2022/11/05 10:35:04;;;;;;;0.20;0.20;;;12.30;99.90;;;;;;5073139;28;20032;-41
2022/11/05 10:37:32;;;;;;;0.73;0.73;;;12.40;99.90;;;;;;5072122;28;20039;-42
2022/11/05 10:39:58;;;;;;;0.20;0.20;;;12.30;99.90;;;;;;5057169;28;20020;-40
2022/11/05 10:42:53;;;;;;;0.20;0.20;;;12.30;99.90;;;;;;5071843;28;20028;-39
2022/11/05 10:45:34;;;;;;;0.20;0.20;;;12.30;99.90;;;;;;5072119;28;20108;-39
2022/11/05 10:48:08;;;;;;;0.20;0.20;;;12.30;99.90;;;;;;5071835;28;20032;-41
2022/11/05 10:50:34;;;;;;;0.20;0.20;;;12.40;99.90;;;;;;5072369;28;20066;-43
2022/11/05 10:53:20;;;;;;;0.50;0.50;;;13.10;99.90;;;;;;5069750;28;20036;-40
2022/11/05 10:55:48;;;;;;;0.50;0.50;;;13.10;99.90;;;;;;5070495;28;20024;-40
2022/11/05 10:58:14;;;;;;;0.20;0.20;;;13.00;99.90;;;;;;5070175;28;20025;-42
2022/11/05 11:00:58;;;;;;;0.20;0.20;;;12.60;99.90;;;;;;5071786;28;20058;-41
2022/11/05 11:03:42;;;;;;;0.20;0.20;;;12.50;99.90;;;;;;5071388;28;20473;-42
2022/11/05 11:06:23;;;;;;;0.20;0.20;;;12.30;99.90;;;;;;5052652;28;20021;-45
2022/11/05 11:08:51;;;;;;;0.20;0.20;;;12.30;99.90;;;;;;5052346;28;20029;-43
2022/11/05 11:11:35;;;;;;;0.32;0.32;;;12.30;99.90;;;;;;5063785;28;20071;-41
2022/11/05 11:14:12;;;;;;;0.20;0.20;;;12.40;99.90;;;;;;5071083;28;20123;-42
2022/11/05 11:16:47;;;;;;;1.42;1.35;;;12.60;99.90;;;;;;5067920;28;20104;-47
2022/11/05 11:19:35;;;;;;;0.40;0.40;;;12.60;99.90;;;;;;5067027;28;20362;-43
2022/11/05 11:22:12;;;;;;;0.20;0.20;;;12.70;99.90;;;;;;5071088;28;20496;-46
2022/11/05 11:24:56;;;;;;;0.20;0.20;;;12.90;99.90;;;;;;5073290;28;20078;-43
2022/11/05 11:27:28;;;;;;;0.50;0.50;;;13.10;99.90;;;;;;5071205;28;20075;-47
2022/11/05 11:29:58;;;;;;;0.20;0.20;;;13.20;99.90;;;;;;5071629;28;20028;-43
2022/11/05 11:32:36;;;;;;;0.20;0.20;;;13.20;99.90;;;;;;5071495;28;20040;-43
2022/11/05 11:35:04;;;;;;;0.20;0.20;;;13.30;99.90;;;;;;5071475;28;20024;-45
2022/11/05 11:37:40;;;;;;;0.20;0.20;;;13.30;99.90;;;;;;5071398;28;20028;-43
2022/11/05 11:40:12;;;;;;;0.55;0.55;;;13.10;99.90;;;;;;5068458;28;20060;-44
2022/11/05 11:42:40;;;;;;;3.63;0.93;;;13.10;99.90;;;;;;5066873;28;20405;-46
2022/11/05 11:45:37;;;;;;;1.77;1.17;;;13.10;99.90;;;;;;5071507;28;20043;-46
2022/11/05 11:48:13;;;;;;;0.25;0.25;;;13.10;99.90;;;;;;5070185;28;20032;-46
2022/11/05 11:50:40;;;;;;;0.20;0.20;;;13.00;99.90;;;;;;5070074;28;20193;-46
2022/11/05 11:53:34;;;;;;;0.20;0.20;;;13.40;99.90;;;;;;5071240;28;20103;-46
2022/11/05 11:56:19;;;;;;;0.20;0.20;;;13.50;99.90;;;;;;5068359;28;20028;-48
2022/11/05 11:58:53;;;;;;;0.30;0.30;;;14.20;99.90;;;;;;5070560;28;20087;-46
2022/11/05 12:01:35;;;;;;;0.20;0.20;;;14.20;99.90;;;;;;5070332;28;20047;-47
2022/11/05 12:04:19;;;;;;;0.20;0.20;;;14.10;99.90;;;;;;5071141;28;20029;-49
2022/11/05 12:06:50;;;;;;;0.20;0.20;;;14.10;99.90;;;;;;5070458;28;20040;-45
2022/11/05 12:09:50;;;;;;;0.20;0.20;;;14.20;99.90;;;;;;5070260;28;20112;-45
2022/11/05 12:12:20;;;;;;;0.20;0.20;;;14.30;99.90;;;;;;5071555;28;20419;-45
2022/11/05 12:14:56;;;;;;;0.20;0.20;;;14.10;99.90;;;;;;5071229;28;20021;-46
2022/11/05 12:17:49;;;;;;;0.20;0.20;;;14.00;99.90;;;;;;5071249;28;20028;-47
2022/11/05 12:20:36;;;;;;;0.20;0.20;;;14.00;99.90;;;;;;5068497;28;20028;-43
2022/11/05 12:23:01;;;;;;;2.47;1.67;;;14.20;99.90;;;;;;5069066;28;20033;-44
2022/11/05 12:25:37;;;;;;;0.20;0.20;;;14.30;99.90;;;;;;5058374;28;20023;-47
2022/11/05 12:28:18;;;;;;;0.20;0.20;;;14.40;99.90;;;;;;5069173;28;20093;-46
2022/11/05 12:31:21;;;;;;;0.20;0.20;;;14.50;99.90;;;;;;5067206;28;20080;-48
2022/11/05 12:34:13;;;;;;;0.20;0.20;;;14.40;99.90;;;;;;5070707;28;20028;-46
2022/11/05 12:36:38;;;;;;;0.20;0.20;;;15.10;99.90;;;;;;5070154;28;20025;-43
2022/11/05 12:39:27;;;;;;;0.20;0.20;;;15.90;99.90;;;;;;5069132;28;20392;-42
2022/11/05 12:42:02;;;;;;;1.75;0.82;;;16.70;99.90;;;;;;5057851;28;20023;-43
2022/11/05 12:44:54;;;;;;;0.20;0.20;;;17.00;99.90;;;;;;5070552;28;20020;-42
2022/11/05 12:47:45;;;;;;;0.20;0.20;;;17.80;99.90;;;;;;5068080;28;20025;-45
2022/11/05 12:50:21;;;;;;;0.40;0.40;;;18.20;99.90;;;;;;5072958;28;20020;-44
2022/11/05 12:53:08;;;;;;;0.95;0.65;;;18.40;99.90;;;;;;5074155;28;20039;-46
2022/11/05 12:55:38;;;;;;;8.70;0.85;;;18.50;99.90;;;;;;5074460;28;20017;-48
2022/11/05 12:58:29;;;;;;;7.95;1.55;;;18.40;99.90;;;;;;5074617;28;20055;-46
2022/11/05 13:01:00;;;;;;;0.32;0.30;;;18.40;99.90;;;;;;5073093;28;20085;-46
2022/11/05 13:03:42;;;;;;;0.20;0.20;;;18.40;99.90;;;;;;5074559;28;20422;-46
2022/11/05 13:06:17;;;;;;;0.35;0.35;;;18.50;99.90;;;;;;5074938;28;20033;-46
2022/11/05 13:09:08;;;;;;;17.08;0.95;;;18.60;99.90;;;;;;5074936;28;20032;-48
2022/11/05 13:11:56;;;;;;;0.65;0.52;;;18.70;99.90;;;;;;5074823;28;20033;-50
2022/11/05 13:14:41;;;;;;;3.38;1.80;;;18.80;99.90;;;;;;5074541;28;20209;-49
2022/11/05 13:17:28;;;;;;;6.75;1.02;;;18.80;99.90;;;;;;5071444;28;20021;-48
2022/11/05 13:20:06;;;;;;;0.28;0.28;;;18.80;99.90;;;;;;5069923;28;20423;-50
2022/11/05 13:22:41;;;;;;;6.32;1.25;;;18.80;99.90;;;;;;5073771;28;20032;-49
2022/11/05 13:25:27;;;;;;;1.00;1.00;;;18.70;99.90;;;;;;5073506;28;20031;-48
2022/11/05 13:28:16;;;;;;;0.80;0.60;;;18.70;99.90;;;;;;5073898;28;20357;-52
2022/11/05 13:30:46;;;;;;;9.23;2.70;;;18.60;99.90;;;;;;5074032;28;20637;-47
2022/11/05 13:33:21;;;;;;;0.68;0.63;;;18.60;99.90;;;;;;5073357;28;20369;-47
2022/11/05 13:38:58;;;;;;;;;;;18.20;99.90;;;;;;5073064;28;20055;-49
2022/11/05 13:41:42;;;;;;;2.30;1.10;;;18.20;99.90;;;;;;5073242;28;19954;-47
2022/11/05 13:44:34;;;;;;;0.20;0.20;;;18.10;99.90;;;;;;5073892;28;20020;-49
2022/11/05 13:47:11;;;;;;;10.27;2.20;;;18.00;99.90;;;;;;5073079;28;20021;-48
2022/11/05 13:49:59;;;;;;;15.32;1.75;;;18.10;99.90;;;;;;5073326;28;20032;-48
2022/11/05 13:52:35;;;;;;;0.45;0.45;;;18.20;99.90;;;;;;5073696;28;20503;-46
2022/11/05 13:55:27;;;;;;;2.90;0.70;;;18.10;99.90;;;;;;5073460;28;20029;-47
2022/11/05 13:58:30;;;;;;;0.40;0.40;;;17.90;99.90;;;;;;5061707;28;20621;-47
2022/11/05 14:01:23;;;;;;;1.85;0.85;;;17.70;99.90;;;;;;5071934;28;20430;-50